Time;durP1;ratioP1;P1;durP2;ratioP2;P2;SDS_P1;SDS_P2;PMS_P1;PMS_P2;Temp;Humidity;BMP_temperature;BMP_pressure;BME280_temperature;BME280_humidity;BME280_pressure;Samples;Min_cycle;Max_cycle;Signal;HPM_P1;HPM_P2
2023/02/20 05:40:48;;;;;;;9.90;2.90;;;;;;;-1.04;99.77;99637.02;112290;1248;23422;-40
2023/02/20 05:43:16;;;;;;;4.50;2.40;;;;;;;-1.00;99.71;99635.45;111699;1249;22500;-50
2023/02/20 05:45:42;;;;;;;6.90;2.60;;;;;;;-0.96;99.43;99635.09;113010;1249;22427;-40
2023/02/20 05:48:12;;;;;;;3.90;2.10;;;;;;;-0.91;99.43;99640.05;113006;1248;22447;-50
2023/02/20 05:50:40;;;;;;;3.80;1.90;;;;;;;-0.85;99.22;99647.64;113012;1249;22405;-50
2023/02/20 05:53:06;;;;;;;5.30;2.50;;;;;;;-0.80;99.08;99645.42;112950;1249;23027;-40
2023/02/20 05:55:34;;;;;;;6.70;2.10;;;;;;;-0.74;98.78;99651.60;113025;1249;22377;-41
2023/02/20 05:58:00;;;;;;;4.90;2.20;;;;;;;-0.70;98.52;99649.36;113009;1248;22458;-40
2023/02/20 06:00:28;;;;;;;4.70;2.00;;;;;;;-0.65;98.10;99648.50;112930;1248;22271;-49
2023/02/20 06:02:55;;;;;;;9.10;2.50;;;;;;;-0.60;97.62;99652.47;113077;1248;22352;-49
2023/02/20 06:05:25;;;;;;;4.10;2.40;;;;;;;-0.55;97.45;99651.27;112937;1247;22673;-39
2023/02/20 06:07:53;;;;;;;3.60;2.20;;;;;;;-0.49;97.28;99652.13;112989;1247;22342;-49
2023/02/20 06:10:20;;;;;;;4.00;2.00;;;;;;;-0.44;96.79;99653.33;112889;1248;22395;-48
2023/02/20 06:12:49;;;;;;;4.30;2.20;;;;;;;-0.39;96.52;99659.34;112911;1248;22302;-47
2023/02/20 06:15:15;;;;;;;5.30;2.20;;;;;;;-0.33;96.55;99655.75;112083;1248;22300;-51
2023/02/20 06:17:48;;;;;;;6.30;2.50;;;;;;;-0.28;96.18;99656.80;112842;1248;22436;-50
2023/02/20 06:20:15;;;;;;;8.80;2.50;;;;;;;-0.23;96.21;99657.80;112897;1247;22717;-50
2023/02/20 06:22:42;;;;;;;2.70;2.10;;;;;;;-0.17;96.13;99660.21;112858;1248;22267;-48
2023/02/20 06:25:09;;;;;;;7.00;2.70;;;;;;;-0.13;95.50;99656.94;112866;1248;23324;-49
2023/02/20 06:27:58;;;;;;;4.60;2.30;;;;;;;-0.09;94.65;99660.50;112831;1248;22980;-49
2023/02/20 06:42:25;;;;;;;4.10;2.40;;;;;;;0.09;92.90;99670.50;112608;1247;22202;-49
2023/02/20 06:45:49;;;;;;;4.00;2.30;;;;;;;0.12;92.09;99674.21;112701;1248;22388;-42
2023/02/20 06:48:33;;;;;;;4.20;2.10;;;;;;;0.15;91.26;99676.67;112623;1248;22388;-40
2023/02/20 06:51:09;;;;;;;6.30;2.10;;;;;;;0.17;90.90;99675.39;112838;1247;22681;-40
2023/02/20 06:53:41;;;;;;;3.40;1.90;;;;;;;0.22;90.44;99679.67;112839;1247;22387;-40
2023/02/20 06:56:09;;;;;;;3.70;2.00;;;;;;;0.28;89.00;99679.86;112825;1248;22621;-50
2023/02/20 06:58:45;;;;;;;4.20;2.10;;;;;;;0.34;87.92;99670.06;112055;1247;25336;-40
2023/02/20 07:01:13;;;;;;;6.80;2.50;;;;;;;0.38;87.55;99674.33;112903;1248;22401;-49
2023/02/20 07:03:40;;;;;;;5.20;2.00;;;;;;;0.41;86.59;99675.98;112944;1248;23085;-49
2023/02/20 07:06:07;;;;;;;6.80;2.10;;;;;;;0.44;86.22;99672.97;112944;1247;22946;-40
2023/02/20 07:08:35;;;;;;;8.90;2.40;;;;;;;0.46;85.91;99672.67;112930;1248;22376;-50
2023/02/20 07:11:02;;;;;;;5.80;1.90;;;;;;;0.47;84.65;99667.74;112887;1248;22476;-49
2023/02/20 07:13:29;;;;;;;7.10;2.10;;;;;;;0.46;83.99;99663.95;112649;1248;22452;-49
2023/02/20 07:15:56;;;;;;;7.90;3.10;;;;;;;0.46;84.39;99667.55;112806;1248;22388;-40
2023/02/20 07:18:23;;;;;;;3.00;1.90;;;;;;;0.49;84.40;99663.86;112720;1247;22376;-49
2023/02/20 07:20:50;;;;;;;4.10;1.90;;;;;;;0.51;82.10;99671.98;112682;1248;22566;-40
2023/02/20 07:23:17;;;;;;;3.00;1.40;;;;;;;0.52;81.85;99673.92;112662;1247;22420;-50
2023/02/20 07:25:44;;;;;;;2.30;1.50;;;;;;;0.54;81.54;99673.45;112879;1248;23256;-40
2023/02/20 07:28:11;;;;;;;3.30;1.70;;;;;;;0.54;80.95;99670.85;112583;1247;25516;-40
2023/02/20 07:30:38;;;;;;;3.00;1.60;;;;;;;0.52;79.77;99677.14;112875;1247;22399;-43
2023/02/20 07:33:05;;;;;;;3.40;1.40;;;;;;;0.54;79.54;99670.34;112849;1232;22166;-40
2023/02/20 07:35:36;;;;;;;2.80;1.10;;;;;;;0.57;78.22;99674.02;112238;1247;22448;-48
2023/02/20 07:38:05;;;;;;;2.00;0.90;;;;;;;0.60;77.78;99672.43;112765;1248;22917;-40
2023/02/20 07:40:32;;;;;;;6.60;1.30;;;;;;;0.63;76.87;99666.14;112926;1248;22374;-40
2023/02/20 07:43:12;;;;;;;1.10;0.90;;;;;;;0.66;76.88;99669.15;112917;1247;23161;-41
2023/02/20 07:45:50;;;;;;;2.60;1.20;;;;;;;0.69;77.01;99668.73;112834;1247;22307;-41
2023/02/20 07:48:17;;;;;;;2.00;0.80;;;;;;;0.73;76.29;99665.08;112952;1247;22462;-50
2023/02/20 07:50:45;;;;;;;2.20;1.10;;;;;;;0.78;76.13;99671.05;112851;1247;22477;-51
2023/02/20 07:53:20;;;;;;;1.80;1.10;;;;;;;0.82;75.50;99669.12;112967;1247;22336;-41
2023/02/20 07:55:47;;;;;;;7.40;2.70;;;;;;;0.84;75.71;99672.09;112948;1248;22462;-39
2023/02/20 07:58:13;;;;;;;8.00;2.00;;;;;;;0.86;75.86;99668.00;112826;1247;22505;-48
2023/02/20 08:00:40;;;;;;;2.70;1.40;;;;;;;0.88;75.89;99664.30;112889;1247;22933;-50
2023/02/20 08:03:11;;;;;;;1.40;1.00;;;;;;;0.94;75.08;99659.67;112709;1247;22723;-50
2023/02/20 08:05:38;;;;;;;2.50;1.40;;;;;;;0.95;72.63;99663.82;112522;1247;22953;-41
2023/02/20 08:08:16;;;;;;;3.90;1.30;;;;;;;0.90;72.47;99658.35;112518;1248;22469;-40
2023/02/20 08:10:43;;;;;;;5.40;1.40;;;;;;;0.90;73.88;99661.61;112265;1241;22490;-50
2023/02/20 08:13:10;;;;;;;1.10;0.90;;;;;;;0.94;73.38;99668.94;112792;1248;23062;-49
2023/02/20 08:15:40;;;;;;;3.40;0.90;;;;;;;1.00;72.30;99666.02;112950;1247;22407;-50
2023/02/20 08:18:11;;;;;;;3.60;1.40;;;;;;;1.04;71.92;99664.24;112326;1232;22433;-42
2023/02/20 08:20:50;;;;;;;3.30;1.40;;;;;;;1.10;71.22;99672.64;112425;1247;23110;-40
2023/02/20 08:23:19;;;;;;;2.50;1.10;;;;;;;1.11;70.87;99669.77;112555;1248;23110;-39
2023/02/20 08:25:47;;;;;;;2.50;1.50;;;;;;;1.15;71.69;99680.00;112817;1247;22625;-41
2023/02/20 08:28:15;;;;;;;1.30;1.00;;;;;;;1.21;70.97;99668.67;112841;1247;22393;-50
2023/02/20 08:30:42;;;;;;;2.20;1.00;;;;;;;1.27;70.17;99660.06;112433;1247;22871;-49
2023/02/20 08:33:09;;;;;;;1.70;0.90;;;;;;;1.29;70.64;99647.09;112461;1247;22514;-49
2023/02/20 08:36:08;;;;;;;3.30;1.40;;;;;;;1.34;70.38;99656.14;112585;1247;22555;-43
2023/02/20 08:38:36;;;;;;;2.20;1.20;;;;;;;1.39;70.53;99652.32;113000;1247;22310;-49
2023/02/20 08:41:06;;;;;;;4.50;1.30;;;;;;;1.49;70.63;99664.79;112967;1248;22423;-48
2023/02/20 08:43:34;;;;;;;2.30;0.90;;;;;;;1.64;70.09;99663.79;112925;1248;22826;-49
2023/02/20 08:46:02;;;;;;;3.30;1.00;;;;;;;1.70;69.92;99656.39;112633;1245;22536;-40
2023/02/20 08:48:31;;;;;;;4.10;1.00;;;;;;;1.76;68.59;99655.33;112557;1248;22594;-51
2023/02/20 08:50:59;;;;;;;2.10;0.80;;;;;;;1.84;67.16;99665.17;112552;1247;22497;-50
2023/02/20 08:53:25;;;;;;;4.70;1.20;;;;;;;1.91;67.43;99662.58;112758;1248;22256;-41
2023/02/20 08:55:52;;;;;;;3.30;1.00;;;;;;;1.97;67.29;99662.91;112743;1247;23527;-41
2023/02/20 08:58:21;;;;;;;3.10;1.20;;;;;;;2.04;65.13;99658.09;112795;1248;22399;-40
2023/02/20 09:00:49;;;;;;;2.30;1.10;;;;;;;2.07;64.60;99661.77;112743;1248;22952;-40
2023/02/20 09:03:16;;;;;;;4.40;2.10;;;;;;;2.08;64.99;99654.05;112677;1248;22424;-40
2023/02/20 09:05:43;;;;;;;4.00;1.00;;;;;;;2.10;64.25;99652.23;112633;1247;22401;-41
2023/02/20 09:08:10;;;;;;;4.10;1.20;;;;;;;2.08;63.36;99654.74;112773;1247;22263;-41
2023/02/20 09:10:40;;;;;;;2.10;0.80;;;;;;;2.12;63.39;99653.13;112574;1248;22512;-41
2023/02/20 09:13:08;;;;;;;4.40;1.30;;;;;;;2.16;61.66;99652.17;112649;1247;22392;-41
2023/02/20 09:15:38;;;;;;;5.10;0.80;;;;;;;2.09;61.41;99646.86;112860;1248;23707;-50
2023/02/20 09:18:08;;;;;;;3.60;0.80;;;;;;;2.03;61.73;99652.90;112753;1247;22841;-49
2023/02/20 09:20:37;;;;;;;4.30;0.90;;;;;;;2.06;62.39;99659.85;112361;1248;23071;-41
2023/02/20 09:23:06;;;;;;;1.40;0.90;;;;;;;2.12;61.80;99658.27;112595;1247;23137;-50
